Vasil Petleshkov — LZLF — position and weather

sailwx.info

Track history (hours):
 
Tides and Currents Weather Stations Pressure Air Temp Water Temp Dewpoint Dewpoint Depression Visibility Wind Speed Wind Dir Waves Ship Positions

Vasil Petleshkov

Last reported at 2017-Oct-17 11:13 UTC. Time now 2017-Oct-17 13:54 UTC.
Position N 45°13' E 019°40'.

Length 200 m; draft 2.1 m.

Type: Ship. MMSI: 207261206.

Date/timePositionNaut miles runAvg speedWind from/ knotsBaromVisibWave heightAir tempDewpointWater temp
2017-Oct-17 11:13N 45°13' E 019°40'1 3.3
2017-Oct-17 10:59N 45°14' E 019°41'2 3.3
2017-Oct-17 10:27N 45°14' E 019°43'  
2017-Oct-14 23:18N 45°11' E 019°59'1 3.5
2017-Oct-14 23:00N 45°11' E 020°01'4 3.1
2017-Oct-14 21:53N 45°10' E 020°06'1 2.9
2017-Oct-14 21:30N 45°10' E 020°07'1 2.6
2017-Oct-14 20:58N 45°11' E 020°09'1 2.7
2017-Oct-14 20:28N 45°11' E 020°11'1 2.4
2017-Oct-14 19:57N 45°10' E 020°12'1 2.7
2017-Oct-14 19:30N 45°10' E 020°14'5 2.7
2017-Oct-14 17:38N 45°06' E 020°18'1 2.8
2017-Oct-14 17:11N 45°05' E 020°19'1 3.2
2017-Oct-14 16:47N 45°04' E 020°20'1 3.5
2017-Oct-14 16:30N 45°03' E 020°21'1 3.0
2017-Oct-14 16:00N 45°02' E 020°22'1 2.3
2017-Oct-14 15:30N 45°01' E 020°22'1 2.6
2017-Oct-14 15:00N 45°00' E 020°20'2 3.3
2017-Oct-14 14:30N 44°59' E 020°18'2 3.2
2017-Oct-14 14:00N 44°58' E 020°17'2 3.0
2017-Oct-14 13:30N 44°56' E 020°18'2 3.2
2017-Oct-14 13:00N 44°55' E 020°20'2 3.3
2017-Oct-14 12:30N 44°54' E 020°21'2 3.4
2017-Oct-14 12:01N 44°52' E 020°22'2 3.1
2017-Oct-14 11:30N 44°52' E 020°24'2 3.2
2017-Oct-14 11:00N 44°51' E 020°26'2 3.2
2017-Oct-14 10:30N 44°50' E 020°28'2 3.2
2017-Oct-14 10:00N 44°50' E 020°30'2 3.4
2017-Oct-14 09:31N 44°50' E 020°32'2 3.4
2017-Oct-14 09:01N 44°51' E 020°34'2 3.4
2017-Oct-14 08:30N 44°51' E 020°37'2 3.2
2017-Oct-14 08:00N 44°50' E 020°38'2 3.1
2017-Oct-14 07:30N 44°49' E 020°38'2 3.2
2017-Oct-14 07:00N 44°47' E 020°38'2 3.2
2017-Oct-14 06:30N 44°46' E 020°38'2 3.1
2017-Oct-14 06:00N 44°45' E 020°40'2 3.1
2017-Oct-14 05:30N 44°43' E 020°41'2 3.2
2017-Oct-14 04:59N 44°42' E 020°42'13 2.6
2017-Oct-14 00:06N 44°43' E 021°00'0 3.1
2017-Oct-14 00:00N 44°43' E 021°01'2 3.2
2017-Oct-13 23:30N 44°43' E 021°03'2 3.2
2017-Oct-13 23:00N 44°43' E 021°05'2 3.1
2017-Oct-13 22:24N 44°44' E 021°08'4 3.1
2017-Oct-13 21:07N 44°46' E 021°12'1 3.2
2017-Oct-13 20:39N 44°47' E 021°14'7 3.1
2017-Oct-13 18:34N 44°48' E 021°23'0 3.5
2017-Oct-13 18:27N 44°48' E 021°23'1 3.1
2017-Oct-13 18:00N 44°47' E 021°24'2 3.4
2017-Oct-13 17:29N 44°46' E 021°27'2 3.3
2017-Oct-13 17:00N 44°46' E 021°29'1 2.5
2017-Oct-13 16:30N 44°46' E 021°31'0 0.1
2017-Oct-13 13:43N 44°46' E 021°31'0 1.1
2017-Oct-13 13:30N 44°46' E 021°31'3 1.0
2017-Oct-13 10:52N 44°46' E 021°34'2 4.3
2017-Oct-13 10:30N 44°45' E 021°36'3 4.1
2017-Oct-13 09:52N 44°43' E 021°38'2 4.3
2017-Oct-13 09:31N 44°41' E 021°39'1 3.0
2017-Oct-13 09:00N 44°40' E 021°41'15 3.5
2017-Oct-13 04:44N 44°36' E 022°01'1 4.2
2017-Oct-13 04:30N 44°35' E 022°02'2 4.5
2017-Oct-13 04:00N 44°33' E 022°02'2 4.4
2017-Oct-13 03:30N 44°31' E 022°04'2 4.4
2017-Oct-13 03:00N 44°29' E 022°06'2 4.5
2017-Oct-13 02:30N 44°28' E 022°09'2 4.2
2017-Oct-13 02:00N 44°29' E 022°11'  
Track history (hours):
 
Tides and Currents Weather Stations Pressure Air Temp Water Temp Dewpoint Dewpoint Depression Visibility Wind Speed Wind Dir Waves Ship Positions

Vasil Petleshkov

Last reported at 2017-Oct-17 11:13 UTC. Time now 2017-Oct-17 13:54 UTC.
Position N 45°13' E 019°40'.

Length 200 m; draft 2.1 m.

Type: Ship. MMSI: 207261206.

Date/timePositionNaut miles runAvg speedWind from/ knotsBaromVisibWave heightAir tempDewpointWater temp
2017-Oct-17 11:13N 45°13' E 019°40'1 3.3
2017-Oct-17 10:59N 45°14' E 019°41'2 3.3
2017-Oct-17 10:27N 45°14' E 019°43'  
2017-Oct-14 23:18N 45°11' E 019°59'1 3.5
2017-Oct-14 23:00N 45°11' E 020°01'4 3.1
2017-Oct-14 21:53N 45°10' E 020°06'1 2.9
2017-Oct-14 21:30N 45°10' E 020°07'1 2.6
2017-Oct-14 20:58N 45°11' E 020°09'1 2.7
2017-Oct-14 20:28N 45°11' E 020°11'1 2.4
2017-Oct-14 19:57N 45°10' E 020°12'1 2.7
2017-Oct-14 19:30N 45°10' E 020°14'5 2.7
2017-Oct-14 17:38N 45°06' E 020°18'1 2.8
2017-Oct-14 17:11N 45°05' E 020°19'1 3.2
2017-Oct-14 16:47N 45°04' E 020°20'1 3.5
2017-Oct-14 16:30N 45°03' E 020°21'1 3.0
2017-Oct-14 16:00N 45°02' E 020°22'1 2.3
2017-Oct-14 15:30N 45°01' E 020°22'1 2.6
2017-Oct-14 15:00N 45°00' E 020°20'2 3.3
2017-Oct-14 14:30N 44°59' E 020°18'2 3.2
2017-Oct-14 14:00N 44°58' E 020°17'2 3.0
2017-Oct-14 13:30N 44°56' E 020°18'2 3.2
2017-Oct-14 13:00N 44°55' E 020°20'2 3.3
2017-Oct-14 12:30N 44°54' E 020°21'2 3.4
2017-Oct-14 12:01N 44°52' E 020°22'2 3.1
2017-Oct-14 11:30N 44°52' E 020°24'2 3.2
2017-Oct-14 11:00N 44°51' E 020°26'2 3.2
2017-Oct-14 10:30N 44°50' E 020°28'2 3.2
2017-Oct-14 10:00N 44°50' E 020°30'2 3.4
2017-Oct-14 09:31N 44°50' E 020°32'2 3.4
2017-Oct-14 09:01N 44°51' E 020°34'2 3.4
2017-Oct-14 08:30N 44°51' E 020°37'2 3.2
2017-Oct-14 08:00N 44°50' E 020°38'2 3.1
2017-Oct-14 07:30N 44°49' E 020°38'2 3.2
2017-Oct-14 07:00N 44°47' E 020°38'2 3.2
2017-Oct-14 06:30N 44°46' E 020°38'2 3.1
2017-Oct-14 06:00N 44°45' E 020°40'2 3.1
2017-Oct-14 05:30N 44°43' E 020°41'2 3.2
2017-Oct-14 04:59N 44°42' E 020°42'13 2.6
2017-Oct-14 00:06N 44°43' E 021°00'0 3.1
2017-Oct-14 00:00N 44°43' E 021°01'2 3.2
2017-Oct-13 23:30N 44°43' E 021°03'2 3.2
2017-Oct-13 23:00N 44°43' E 021°05'2 3.1
2017-Oct-13 22:24N 44°44' E 021°08'4 3.1
2017-Oct-13 21:07N 44°46' E 021°12'1 3.2
2017-Oct-13 20:39N 44°47' E 021°14'7 3.1
2017-Oct-13 18:34N 44°48' E 021°23'0 3.5
2017-Oct-13 18:27N 44°48' E 021°23'1 3.1
2017-Oct-13 18:00N 44°47' E 021°24'2 3.4
2017-Oct-13 17:29N 44°46' E 021°27'2 3.3
2017-Oct-13 17:00N 44°46' E 021°29'1 2.5
2017-Oct-13 16:30N 44°46' E 021°31'0 0.1
2017-Oct-13 13:43N 44°46' E 021°31'0 1.1
2017-Oct-13 13:30N 44°46' E 021°31'3 1.0
2017-Oct-13 10:52N 44°46' E 021°34'2 4.3
2017-Oct-13 10:30N 44°45' E 021°36'3 4.1
2017-Oct-13 09:52N 44°43' E 021°38'2 4.3
2017-Oct-13 09:31N 44°41' E 021°39'1 3.0
2017-Oct-13 09:00N 44°40' E 021°41'15 3.5
2017-Oct-13 04:44N 44°36' E 022°01'1 4.2
2017-Oct-13 04:30N 44°35' E 022°02'2 4.5
2017-Oct-13 04:00N 44°33' E 022°02'2 4.4
2017-Oct-13 03:30N 44°31' E 022°04'2 4.4
2017-Oct-13 03:00N 44°29' E 022°06'2 4.5
2017-Oct-13 02:30N 44°28' E 022°09'2 4.2
2017-Oct-13 02:00N 44°29' E 022°11'  

Dump ship's entire track history